createdAt,value
2023-04-01T00:07:15.362Z,1.63
2023-04-01T00:14:49.211Z,1.30
2023-04-01T00:22:25.001Z,2.05
2023-04-01T00:29:59.009Z,1.05
2023-04-01T00:37:37.910Z,1.10
2023-04-01T00:45:34.187Z,1.15
2023-04-01T00:53:10.713Z,1.02
2023-04-01T01:00:45.322Z,1.13
2023-04-01T01:08:33.067Z,1.20
2023-04-01T01:16:13.405Z,1.33
2023-04-01T01:24:15.939Z,1.40
2023-04-01T01:31:59.038Z,1.17
2023-04-01T01:39:36.994Z,1.35
2023-04-01T01:47:11.641Z,1.67
2023-04-01T01:54:51.468Z,1.90
2023-04-01T02:02:27.354Z,2.33
2023-04-01T02:10:03.467Z,2.10
2023-04-01T02:17:42.345Z,5.60
2023-04-01T02:25:22.842Z,2.22
2023-04-01T02:32:57.865Z,2.05
2023-04-01T02:40:44.225Z,1.60
2023-04-01T02:48:18.177Z,1.75
2023-04-01T02:55:53.523Z,2.20
2023-04-01T03:03:27.591Z,1.85
2023-04-01T03:11:03.735Z,2.00
2023-04-01T03:26:30.292Z,1.75
2023-04-01T03:41:57.128Z,1.73
2023-04-01T03:49:33.174Z,1.98
2023-04-01T03:57:27.514Z,2.20
2023-04-01T04:05:01.557Z,1.73
2023-04-01T04:12:36.875Z,1.70
2023-04-01T04:20:11.411Z,2.05
2023-04-01T04:27:46.666Z,2.03
2023-04-01T04:35:20.485Z,2.40
2023-04-01T04:42:56.008Z,2.42
2023-04-01T04:50:29.934Z,2.33
2023-04-01T04:58:05.073Z,2.70
2023-04-01T05:05:39.039Z,2.35
2023-04-01T05:13:14.350Z,2.10
2023-04-01T05:20:49.891Z,2.38
2023-04-01T05:28:25.302Z,2.60
2023-04-01T05:36:07.237Z,2.88
2023-04-01T05:43:42.929Z,3.00
2023-04-01T05:51:17.587Z,3.00
2023-04-01T05:58:55.614Z,2.58
2023-04-01T06:06:33.035Z,2.53
2023-04-01T06:14:19.814Z,3.45
2023-04-01T06:22:19.322Z,2.70
2023-04-01T06:30:08.456Z,2.75
2023-04-01T06:38:03.407Z,3.13
2023-04-01T06:45:44.880Z,2.80
2023-04-01T06:53:23.850Z,2.30
2023-04-01T07:01:03.929Z,3.10
2023-04-01T07:08:42.142Z,1.88
2023-04-01T07:16:21.830Z,1.67
2023-04-01T07:23:59.113Z,2.70
2023-04-01T07:31:54.202Z,1.80
2023-04-01T07:39:39.344Z,2.00
2023-04-01T07:47:35.608Z,1.60
2023-04-01T07:55:17.106Z,2.05
2023-04-01T08:03:10.240Z,1.92
2023-04-01T08:10:52.681Z,1.73
2023-04-01T08:18:43.951Z,1.70
2023-04-01T08:26:25.590Z,1.30
2023-04-01T08:34:05.929Z,1.63
2023-04-01T08:42:06.732Z,1.42
2023-04-01T08:50:01.946Z,1.38
2023-04-01T08:57:46.876Z,1.85
2023-04-01T09:05:32.191Z,2.20
2023-04-01T09:13:29.154Z,1.55
2023-04-01T09:29:43.314Z,1.00
2023-04-01T09:37:23.595Z,1.20
2023-04-01T09:45:01.050Z,2.20
2023-04-01T09:52:48.982Z,2.72
2023-04-01T10:00:40.380Z,4.13
2023-04-01T10:08:39.528Z,4.57
2023-04-01T10:16:46.701Z,3.97
2023-04-01T10:24:54.703Z,3.58
2023-04-01T10:32:58.839Z,4.15
2023-04-01T10:41:03.366Z,4.97
2023-04-01T10:49:28.028Z,6.13
2023-04-01T10:57:10.998Z,7.00
2023-04-01T11:05:02.698Z,6.53
2023-04-01T11:13:21.369Z,5.82
2023-04-01T11:21:26.608Z,5.82
2023-04-01T11:29:16.262Z,6.77
2023-04-01T11:37:03.462Z,8.60
2023-04-01T11:44:47.472Z,6.97
2023-04-01T11:52:36.840Z,7.15
2023-04-01T12:00:35.395Z,7.65
2023-04-01T12:08:22.495Z,8.57
2023-04-01T12:16:28.341Z,6.50
2023-04-01T12:32:04.768Z,3.65
2023-04-01T12:48:17.286Z,3.63
2023-04-01T12:55:53.593Z,4.28
2023-04-01T13:03:47.022Z,9.05
2023-04-01T13:11:26.234Z,8.07
2023-04-01T13:27:08.205Z,5.50
2023-04-01T13:34:56.459Z,7.13
2023-04-01T13:42:36.412Z,10.13
2023-04-01T13:50:34.748Z,11.25
2023-04-01T13:58:41.231Z,9.93
2023-04-01T14:06:33.409Z,9.40
2023-04-01T14:14:18.626Z,10.43
2023-04-01T14:21:59.224Z,8.80
2023-04-01T14:29:40.791Z,7.25
2023-04-01T14:37:41.550Z,7.68
2023-04-01T14:45:36.815Z,7.25
2023-04-01T15:01:16.172Z,6.85
2023-04-01T15:08:59.914Z,5.93
2023-04-01T15:16:42.045Z,5.75
2023-04-01T15:24:23.563Z,6.18
2023-04-01T15:40:04.459Z,5.57
2023-04-01T15:47:44.974Z,6.47
2023-04-01T15:55:32.943Z,6.30
2023-04-01T16:03:21.472Z,6.60
2023-04-01T16:11:11.051Z,5.60
2023-04-01T16:19:05.581Z,5.47
2023-04-01T16:34:48.851Z,7.47
2023-04-01T16:42:33.182Z,6.43
2023-04-01T16:50:16.786Z,5.73
2023-04-01T16:57:54.424Z,6.45
2023-04-01T17:05:42.271Z,6.07
2023-04-01T17:13:37.079Z,5.75
2023-04-01T17:29:17.350Z,4.75
2023-04-01T17:37:03.744Z,4.78
2023-04-01T17:44:51.738Z,5.70
2023-04-01T17:52:31.519Z,6.40
2023-04-01T18:00:23.005Z,5.85
2023-04-01T18:08:16.445Z,6.25
2023-04-01T18:16:04.859Z,6.13
2023-04-01T18:23:52.103Z,5.43
2023-04-01T18:31:37.354Z,5.97
2023-04-01T18:39:17.846Z,5.50
2023-04-01T18:47:02.166Z,5.38
2023-04-01T18:54:48.228Z,5.70
2023-04-01T19:02:32.006Z,4.90
2023-04-01T19:10:18.859Z,5.13
2023-04-01T19:18:11.107Z,5.43
2023-04-01T19:25:51.820Z,5.93
2023-04-01T19:33:41.342Z,7.15
2023-04-01T19:41:27.645Z,6.40
2023-04-01T19:49:17.609Z,7.00
2023-04-01T19:56:57.933Z,6.43
2023-04-01T20:04:38.338Z,6.97
2023-04-01T20:12:21.086Z,7.15
2023-04-01T20:20:01.511Z,6.75
2023-04-01T20:27:42.030Z,6.72
2023-04-01T20:35:29.327Z,7.80
2023-04-01T20:43:25.463Z,7.28
2023-04-01T20:51:05.832Z,7.22
2023-04-01T20:58:54.030Z,8.38
2023-04-01T21:06:50.694Z,7.10
2023-04-01T21:14:48.730Z,6.95
2023-04-01T21:22:52.559Z,6.85
2023-04-01T21:30:50.642Z,6.78
2023-04-01T21:38:46.201Z,6.82
2023-04-01T21:47:02.962Z,5.28
2023-04-01T22:03:47.019Z,4.72
2023-04-01T22:11:33.525Z,6.63
2023-04-01T22:19:21.024Z,7.72
2023-04-01T22:27:02.176Z,6.82
2023-04-01T22:34:45.636Z,5.63
2023-04-01T22:42:37.098Z,5.72
2023-04-01T22:50:21.666Z,5.05
2023-04-01T22:58:01.726Z,4.35
2023-04-01T23:05:41.574Z,4.60
2023-04-01T23:13:20.850Z,3.83
2023-04-01T23:21:16.810Z,4.65
2023-04-01T23:28:53.691Z,6.20
2023-04-01T23:36:29.738Z,5.80
2023-04-01T23:44:07.074Z,4.50
2023-04-01T23:51:52.597Z,4.35
2023-04-01T23:59:31.355Z,3.97
